Aviation Digital Data Service (ADDS)

Output produced by TAFs form (0033 UTC 21 January 2018)
found at http://aviationweather.gov/adds/tafs/
 
KMTJ 202339Z 2100/2124 21006KT P6SM VCSH SCT080 OVC090 
     FM210200 19008KT P6SM -SHRASN SCT030 OVC040 
     FM210400 18007KT 6SM -SHSN BKN040 
     FM210900 18006KT P6SM VCSH SCT040 BKN050 
     FM211100 22006KT P6SM VCSH SCT030 BKN045 
     FM211400 27006KT 3SM BR VCSH SCT025 OVC030